createdAt,value
2017-10-24T00:00:20.791Z,999.06
2017-10-24T00:01:20.788Z,999.02
2017-10-24T00:02:20.785Z,999.01
2017-10-24T00:03:20.782Z,999.02
2017-10-24T00:04:20.778Z,999
2017-10-24T00:05:20.778Z,999.02
2017-10-24T00:06:20.773Z,999.03
2017-10-24T00:07:20.770Z,999.06
2017-10-24T00:08:20.771Z,999.01
2017-10-24T00:09:20.773Z,999.04
2017-10-24T00:10:20.760Z,999.04
2017-10-24T00:11:20.759Z,999.04
2017-10-24T00:12:20.757Z,999.08
2017-10-24T00:13:20.752Z,999.13
2017-10-24T00:14:20.748Z,999.14
2017-10-24T00:15:20.745Z,999.16
2017-10-24T00:16:20.742Z,999.19
2017-10-24T00:17:20.740Z,999.16
2017-10-24T00:18:20.739Z,999.18
2017-10-24T00:19:20.738Z,999.14
2017-10-24T00:20:20.731Z,999.12
2017-10-24T00:21:20.728Z,999.13
2017-10-24T00:22:20.725Z,999.16
2017-10-24T00:23:20.726Z,999.16
2017-10-24T00:24:20.720Z,999.16
2017-10-24T00:25:20.721Z,999.18
2017-10-24T00:26:20.720Z,999.16
2017-10-24T00:27:20.714Z,999.17
2017-10-24T00:28:20.707Z,999.13
2017-10-24T00:29:20.718Z,999.15
2017-10-24T00:30:20.701Z,999.14
2017-10-24T00:31:20.701Z,999.14
2017-10-24T00:32:20.694Z,999.14
2017-10-24T00:33:20.692Z,999.14
2017-10-24T00:34:20.689Z,999.14
2017-10-24T00:35:20.686Z,999.15
2017-10-24T00:36:20.684Z,999.16
2017-10-24T00:37:20.679Z,999.14
2017-10-24T00:38:20.676Z,999.19
2017-10-24T00:39:20.674Z,999.18
2017-10-24T00:40:20.673Z,999.18
2017-10-24T00:41:20.670Z,999.2
2017-10-24T00:42:20.664Z,999.2
2017-10-24T00:43:20.665Z,999.22
2017-10-24T00:44:20.657Z,999.2
2017-10-24T00:45:20.655Z,999.21
2017-10-24T00:46:20.652Z,999.25
2017-10-24T00:47:20.651Z,999.21
2017-10-24T00:48:20.652Z,999.2
2017-10-24T00:49:20.643Z,999.29
2017-10-24T00:50:20.646Z,999.28
2017-10-24T00:51:20.636Z,999.28
2017-10-24T00:52:20.636Z,999.28
2017-10-24T00:53:20.630Z,999.31
2017-10-24T00:54:20.628Z,999.3
2017-10-24T00:55:20.625Z,999.28
2017-10-24T00:56:20.623Z,999.29
2017-10-24T00:57:20.885Z,999.27
2017-10-24T00:58:20.858Z,999.27
2017-10-24T00:59:20.831Z,999.29
2017-10-24T01:00:20.609Z,999.28
2017-10-24T01:01:20.607Z,999.29
2017-10-24T01:02:20.603Z,999.29
2017-10-24T01:03:20.599Z,999.28
2017-10-24T01:04:20.600Z,999.28
2017-10-24T01:05:20.600Z,999.25
2017-10-24T01:06:20.590Z,999.26
2017-10-24T01:07:20.591Z,999.28
2017-10-24T01:08:20.584Z,999.28
2017-10-24T01:09:20.582Z,999.25
2017-10-24T01:10:20.582Z,999.23
2017-10-24T01:11:20.575Z,999.25
2017-10-24T01:12:20.573Z,999.27
2017-10-24T01:13:20.568Z,999.25
2017-10-24T01:14:20.564Z,999.26
2017-10-24T01:15:20.562Z,999.32
2017-10-24T01:16:22.361Z,999.28
2017-10-24T01:17:20.555Z,999.3
2017-10-24T01:18:20.553Z,999.31
2017-10-24T01:19:20.568Z,999.29
2017-10-24T01:20:20.550Z,999.31
2017-10-24T01:21:20.553Z,999.25
2017-10-24T01:22:20.554Z,999.29
2017-10-24T01:23:20.550Z,999.27
2017-10-24T01:24:20.532Z,999.29
2017-10-24T01:25:20.529Z,999.3
2017-10-24T01:26:20.532Z,999.28
2017-10-24T01:27:20.522Z,999.26
2017-10-24T01:28:20.517Z,999.3
2017-10-24T01:29:20.536Z,999.25
2017-10-24T01:30:20.516Z,999.26
2017-10-24T01:31:20.521Z,999.24
2017-10-24T01:32:20.520Z,999.28
2017-10-24T01:33:20.504Z,999.28
2017-10-24T01:34:20.498Z,999.23
2017-10-24T01:35:20.500Z,999.27
2017-10-24T01:36:20.499Z,999.25
2017-10-24T01:37:20.499Z,999.27
2017-10-24T01:38:20.497Z,999.27
2017-10-24T01:39:20.498Z,999.28
2017-10-24T01:40:20.481Z,999.28
2017-10-24T01:41:20.477Z,999.29
2017-10-24T01:42:20.476Z,999.27
2017-10-24T01:43:20.470Z,999.32
2017-10-24T01:44:20.468Z,999.28
2017-10-24T01:45:20.474Z,999.31
2017-10-24T01:46:20.467Z,999.3
2017-10-24T01:47:20.469Z,999.25
2017-10-24T01:48:20.470Z,999.23
2017-10-24T01:49:20.472Z,999.26
2017-10-24T01:50:20.449Z,999.26
2017-10-24T01:51:20.448Z,999.28
2017-10-24T01:52:20.444Z,999.29
2017-10-24T01:53:20.439Z,999.32
2017-10-24T01:54:20.437Z,999.33
2017-10-24T01:55:20.438Z,999.27
2017-10-24T01:56:20.445Z,999.28
2017-10-24T01:57:20.429Z,999.29
2017-10-24T01:58:20.427Z,999.33
2017-10-24T01:59:20.426Z,999.31
2017-10-24T02:00:20.420Z,999.3
2017-10-24T02:01:20.420Z,999.32
2017-10-24T02:02:20.420Z,999.31
2017-10-24T02:03:20.418Z,999.28
2017-10-24T02:04:20.414Z,999.22
2017-10-24T02:05:20.410Z,999.22
2017-10-24T02:06:20.416Z,999.27
2017-10-24T02:07:20.405Z,999.26
2017-10-24T02:08:20.398Z,999.25
2017-10-24T02:09:20.396Z,999.3
2017-10-24T02:10:20.393Z,999.27
2017-10-24T02:11:20.391Z,999.23
2017-10-24T02:12:20.388Z,999.26
2017-10-24T02:13:20.392Z,999.25
2017-10-24T02:14:20.383Z,999.23
2017-10-24T02:15:20.382Z,999.24
2017-10-24T02:16:20.377Z,999.27
2017-10-24T02:17:20.874Z,999.26
2017-10-24T02:18:20.371Z,999.27
2017-10-24T02:19:20.370Z,999.33
2017-10-24T02:20:20.378Z,999.3
2017-10-24T02:21:20.364Z,999.29
2017-10-24T02:22:20.364Z,999.3
2017-10-24T02:23:20.360Z,999.28
2017-10-24T02:24:20.370Z,999.36
2017-10-24T02:25:20.364Z,999.38
2017-10-24T02:26:20.356Z,999.35
2017-10-24T02:27:20.350Z,999.35
2017-10-24T02:28:20.345Z,999.37
2017-10-24T02:29:20.355Z,999.41
2017-10-24T02:30:20.343Z,999.39
2017-10-24T02:31:20.343Z,999.39
2017-10-24T02:32:20.339Z,999.38
2017-10-24T02:33:20.335Z,999.38
2017-10-24T02:34:20.336Z,999.33
2017-10-24T02:35:20.343Z,999.32
2017-10-24T02:36:20.332Z,999.31
2017-10-24T02:37:20.324Z,999.32
2017-10-24T02:38:20.319Z,999.29
2017-10-24T02:39:20.317Z,999.27
2017-10-24T02:40:20.315Z,999.29
2017-10-24T02:41:20.311Z,999.29
2017-10-24T02:42:20.312Z,999.3
2017-10-24T02:43:20.308Z,999.28
2017-10-24T02:44:20.304Z,999.29
2017-10-24T02:45:20.301Z,999.28
2017-10-24T02:46:20.300Z,999.25
2017-10-24T02:47:20.297Z,999.24
2017-10-24T02:48:20.296Z,999.25
2017-10-24T02:49:20.292Z,999.29
2017-10-24T02:50:20.294Z,999.29
2017-10-24T02:51:20.287Z,999.26
2017-10-24T02:52:20.282Z,999.29
2017-10-24T02:53:20.280Z,999.29
2017-10-24T02:54:20.277Z,999.28
2017-10-24T02:55:20.277Z,999.2
2017-10-24T02:56:20.272Z,999.21
2017-10-24T02:57:20.269Z,999.22
2017-10-24T02:58:20.266Z,999.2
2017-10-24T02:59:20.264Z,999.24
2017-10-24T03:00:20.261Z,999.21
2017-10-24T03:01:20.261Z,999.23
2017-10-24T03:02:20.257Z,999.19
2017-10-24T03:03:20.254Z,999.22
2017-10-24T03:04:20.249Z,999.21
2017-10-24T03:05:20.249Z,999.23
2017-10-24T03:06:20.244Z,999.19
2017-10-24T03:07:20.247Z,999.2
2017-10-24T03:08:20.241Z,999.22
2017-10-24T03:09:20.235Z,999.17
2017-10-24T03:10:20.234Z,999.15
2017-10-24T03:11:20.235Z,999.14
2017-10-24T03:12:20.228Z,999.11
2017-10-24T03:13:20.226Z,999.14
2017-10-24T03:14:20.221Z,999.17
2017-10-24T03:15:20.221Z,999.15
2017-10-24T03:16:20.218Z,999.16
2017-10-24T03:17:20.214Z,999.15
2017-10-24T03:18:20.210Z,999.16
2017-10-24T03:19:20.208Z,999.18
2017-10-24T03:20:20.206Z,999.17
2017-10-24T03:21:20.203Z,999.21
2017-10-24T03:22:20.208Z,999.23
2017-10-24T03:23:20.197Z,999.23
2017-10-24T03:24:20.193Z,999.23
2017-10-24T03:25:20.190Z,999.24
2017-10-24T03:26:20.188Z,999.25
2017-10-24T03:27:20.186Z,999.26
2017-10-24T03:28:20.186Z,999.25
2017-10-24T03:29:20.180Z,999.29
2017-10-24T03:30:20.179Z,999.3
2017-10-24T03:31:20.174Z,999.31
2017-10-24T03:32:20.172Z,999.31
2017-10-24T03:33:20.169Z,999.32
2017-10-24T03:34:20.169Z,999.33
2017-10-24T03:35:20.164Z,999.35
2017-10-24T03:36:20.166Z,999.32
2017-10-24T03:37:20.158Z,999.29
2017-10-24T03:38:20.156Z,999.26
2017-10-24T03:39:20.155Z,999.25
2017-10-24T03:40:20.150Z,999.22
2017-10-24T03:41:20.153Z,999.26
2017-10-24T03:42:20.150Z,999.25
2017-10-24T03:43:20.141Z,999.29
2017-10-24T03:44:20.143Z,999.28
2017-10-24T03:45:20.137Z,999.27
2017-10-24T03:46:20.138Z,999.28
2017-10-24T03:47:20.132Z,999.26
2017-10-24T03:48:20.129Z,999.26
2017-10-24T03:49:20.131Z,999.28
2017-10-24T03:50:20.125Z,999.31
2017-10-24T03:51:20.121Z,999.24
2017-10-24T03:52:20.119Z,999.3
2017-10-24T03:53:20.117Z,999.31
2017-10-24T03:54:20.113Z,999.33
2017-10-24T03:55:20.112Z,999.33
2017-10-24T03:56:20.107Z,999.32
2017-10-24T03:57:20.107Z,999.37
2017-10-24T03:58:20.102Z,999.37
2017-10-24T03:59:20.100Z,999.36
2017-10-24T04:00:20.099Z,999.37
2017-10-24T04:01:20.103Z,999.39
2017-10-24T04:02:20.093Z,999.41
2017-10-24T04:03:20.091Z,999.37
2017-10-24T04:04:20.089Z,999.36
2017-10-24T04:05:20.083Z,999.34
2017-10-24T04:06:20.086Z,999.3
2017-10-24T04:07:20.080Z,999.35
2017-10-24T04:08:20.077Z,999.33
2017-10-24T04:09:20.073Z,999.32
2017-10-24T04:10:20.075Z,999.34
2017-10-24T04:11:20.069Z,999.38
2017-10-24T04:12:20.066Z,999.36
2017-10-24T04:13:20.064Z,999.4
2017-10-24T04:14:20.061Z,999.41
2017-10-24T04:15:20.060Z,999.45
2017-10-24T04:16:20.056Z,999.43
2017-10-24T04:17:20.053Z,999.41
2017-10-24T04:18:20.050Z,999.45
2017-10-24T04:19:20.066Z,999.45
2017-10-24T04:20:20.046Z,999.48
2017-10-24T04:21:20.044Z,999.49
2017-10-24T04:22:20.045Z,999.47
2017-10-24T04:23:20.041Z,999.4
2017-10-24T04:24:20.041Z,999.44
2017-10-24T04:25:20.035Z,999.47
2017-10-24T04:26:20.033Z,999.43
2017-10-24T04:27:20.046Z,999.43
2017-10-24T04:28:20.023Z,999.42
2017-10-24T04:29:20.021Z,999.4
2017-10-24T04:30:20.018Z,999.43
2017-10-24T04:31:20.021Z,999.44
2017-10-24T04:32:20.014Z,999.45
2017-10-24T04:33:20.064Z,999.42
2017-10-24T04:34:20.009Z,999.44
2017-10-24T04:35:20.006Z,999.41
2017-10-24T04:36:20.009Z,999.43
2017-10-24T04:37:20.007Z,999.43
2017-10-24T04:38:19.996Z,999.42
2017-10-24T04:39:19.996Z,999.45
2017-10-24T04:40:19.993Z,999.47
2017-10-24T04:41:19.998Z,999.52
2017-10-24T04:42:19.989Z,999.5
2017-10-24T04:43:19.986Z,999.52
2017-10-24T04:44:19.983Z,999.53
2017-10-24T04:45:19.982Z,999.54
2017-10-24T04:46:19.976Z,999.55
2017-10-24T04:47:19.975Z,999.51
2017-10-24T04:48:22.023Z,999.5
2017-10-24T04:49:19.968Z,999.57
2017-10-24T04:50:19.966Z,999.53
2017-10-24T04:51:19.964Z,999.53
2017-10-24T04:52:19.960Z,999.57
2017-10-24T04:53:19.957Z,999.55
2017-10-24T04:54:19.956Z,999.52
2017-10-24T04:55:19.954Z,999.55
2017-10-24T04:56:19.952Z,999.51
2017-10-24T04:57:19.948Z,999.54
2017-10-24T04:58:19.946Z,999.5
2017-10-24T04:59:19.945Z,999.54
2017-10-24T05:00:19.941Z,999.49
2017-10-24T05:01:19.960Z,999.51
2017-10-24T05:02:19.940Z,999.5
2017-10-24T05:03:19.940Z,999.5
2017-10-24T05:04:19.930Z,999.44
2017-10-24T05:05:19.930Z,999.49
2017-10-24T05:06:19.927Z,999.5
2017-10-24T05:07:19.924Z,999.55
2017-10-24T05:08:19.922Z,999.57
2017-10-24T05:09:19.921Z,999.55
2017-10-24T05:10:19.926Z,999.54
2017-10-24T05:11:19.913Z,999.53
2017-10-24T05:12:19.912Z,999.56
2017-10-24T05:13:19.907Z,999.61
2017-10-24T05:14:19.904Z,999.63
2017-10-24T05:15:19.903Z,999.62
2017-10-24T05:16:19.898Z,999.66
2017-10-24T05:17:19.896Z,999.67
2017-10-24T05:18:19.893Z,999.67
2017-10-24T05:19:19.891Z,999.68
2017-10-24T05:20:19.889Z,999.67
2017-10-24T05:21:19.892Z,999.68
2017-10-24T05:22:19.883Z,999.67
2017-10-24T05:23:19.880Z,999.71
2017-10-24T05:24:19.879Z,999.67
2017-10-24T05:25:19.880Z,999.72
2017-10-24T05:26:19.872Z,999.68
2017-10-24T05:27:19.871Z,999.69
2017-10-24T05:28:19.870Z,999.65
2017-10-24T05:29:19.868Z,999.65
2017-10-24T05:30:19.859Z,999.63
2017-10-24T05:31:19.860Z,999.61
2017-10-24T05:32:19.855Z,999.66
2017-10-24T05:33:19.853Z,999.68
2017-10-24T05:34:19.850Z,999.63
2017-10-24T05:35:19.847Z,999.67
2017-10-24T05:36:19.844Z,999.65
2017-10-24T05:37:19.842Z,999.65
2017-10-24T05:38:19.841Z,999.64
2017-10-24T05:39:19.837Z,999.7
2017-10-24T05:40:19.833Z,999.63
2017-10-24T05:41:19.832Z,999.65
2017-10-24T05:42:19.828Z,999.61
2017-10-24T05:43:19.825Z,999.61
2017-10-24T05:44:19.822Z,999.6
2017-10-24T05:45:19.819Z,999.66
2017-10-24T05:46:19.836Z,999.64
2017-10-24T05:47:19.815Z,999.64
2017-10-24T05:48:19.813Z,999.63
2017-10-24T05:49:20.959Z,999.69
2017-10-24T05:50:19.806Z,999.71
2017-10-24T05:51:19.811Z,999.71
2017-10-24T05:52:19.806Z,999.71
2017-10-24T05:53:19.799Z,999.73
2017-10-24T05:54:19.796Z,999.67
2017-10-24T05:55:19.791Z,999.75
2017-10-24T05:56:19.789Z,999.68
2017-10-24T05:57:19.786Z,999.71
2017-10-24T05:58:19.784Z,999.7
2017-10-24T05:59:19.779Z,999.68
2017-10-24T06:00:19.775Z,999.69
2017-10-24T06:01:19.774Z,999.64
2017-10-24T06:02:19.771Z,999.67
2017-10-24T06:03:19.777Z,999.68
2017-10-24T06:04:19.763Z,999.65
2017-10-24T06:05:19.766Z,999.7
2017-10-24T06:06:19.769Z,999.69
2017-10-24T06:07:19.754Z,999.67
2017-10-24T06:08:19.754Z,999.73
2017-10-24T06:09:19.746Z,999.73
2017-10-24T06:10:19.743Z,999.72
2017-10-24T06:11:19.740Z,999.71
2017-10-24T06:12:19.735Z,999.7
2017-10-24T06:13:19.732Z,999.79
2017-10-24T06:14:19.728Z,999.75
2017-10-24T06:15:19.724Z,999.74
2017-10-24T06:16:19.726Z,999.75
2017-10-24T06:17:19.715Z,999.71
2017-10-24T06:18:19.717Z,999.76
2017-10-24T06:19:19.708Z,999.75
2017-10-24T06:20:19.705Z,999.73
2017-10-24T06:21:19.701Z,999.68
2017-10-24T06:22:19.700Z,999.68
2017-10-24T06:23:19.692Z,999.62
2017-10-24T06:24:19.690Z,999.68
2017-10-24T06:25:19.686Z,999.6
2017-10-24T06:26:19.687Z,999.65
2017-10-24T06:27:19.679Z,999.68
2017-10-24T06:28:19.679Z,999.61
2017-10-24T06:29:19.671Z,999.61
2017-10-24T06:30:19.673Z,999.61
2017-10-24T06:31:19.672Z,999.55
2017-10-24T06:32:19.671Z,999.64
2017-10-24T06:33:19.656Z,999.62
2017-10-24T06:34:19.652Z,999.61
2017-10-24T06:35:19.648Z,999.65
2017-10-24T06:36:19.645Z,999.62
2017-10-24T06:37:19.645Z,999.68
2017-10-24T06:38:19.637Z,999.7
2017-10-24T06:39:19.632Z,999.7
2017-10-24T06:40:19.628Z,999.75
2017-10-24T06:41:19.624Z,999.79
2017-10-24T06:42:19.622Z,999.83
2017-10-24T06:43:19.618Z,999.88
2017-10-24T06:44:19.620Z,999.92
2017-10-24T06:45:19.618Z,999.95
2017-10-24T06:46:19.611Z,999.98
2017-10-24T06:47:19.638Z,999.97
2017-10-24T06:48:19.599Z,999.98
2017-10-24T06:49:19.602Z,1000.02
2017-10-24T06:50:19.592Z,1000.04
2017-10-24T06:51:19.589Z,1000.04
2017-10-24T06:52:19.593Z,1000.04
2017-10-24T06:53:19.585Z,1000.09
2017-10-24T06:54:19.581Z,1000.11
2017-10-24T06:55:19.578Z,1000.12
2017-10-24T06:56:19.574Z,1000.13
2017-10-24T06:57:19.574Z,1000.15
2017-10-24T06:58:19.569Z,1000.14
2017-10-24T06:59:19.570Z,1000.14
2017-10-24T07:00:19.616Z,1000.17
2017-10-24T07:01:19.567Z,1000.16
2017-10-24T07:02:19.557Z,1000.17
2017-10-24T07:03:19.567Z,1000.19
2017-10-24T07:04:19.550Z,1000.2
2017-10-24T07:05:19.545Z,1000.16
2017-10-24T07:06:19.545Z,1000.19
2017-10-24T07:07:19.542Z,1000.25
2017-10-24T07:08:19.545Z,1000.23
2017-10-24T07:09:19.552Z,1000.24
2017-10-24T07:10:19.536Z,1000.25
2017-10-24T07:11:19.531Z,1000.25
2017-10-24T07:12:19.529Z,1000.22
2017-10-24T07:13:19.538Z,1000.24
2017-10-24T07:14:19.531Z,1000.22
2017-10-24T07:15:19.529Z,1000.22
2017-10-24T07:16:19.527Z,1000.22
2017-10-24T07:17:19.513Z,1000.23
2017-10-24T07:18:19.516Z,1000.22
2017-10-24T07:19:19.508Z,1000.22
2017-10-24T07:20:21.118Z,1000.25
2017-10-24T07:21:19.506Z,1000.22
2017-10-24T07:22:19.503Z,1000.28
2017-10-24T07:23:19.501Z,1000.23
2017-10-24T07:24:19.497Z,1000.21
2017-10-24T07:25:19.495Z,1000.23
2017-10-24T07:26:19.492Z,1000.23
2017-10-24T07:27:19.495Z,1000.23
2017-10-24T07:28:19.489Z,1000.26
2017-10-24T07:29:19.493Z,1000.32
2017-10-24T07:30:19.485Z,1000.32
2017-10-24T07:31:19.488Z,1000.32
2017-10-24T07:32:19.482Z,1000.32
2017-10-24T07:33:19.479Z,1000.31
2017-10-24T07:34:19.482Z,1000.31
2017-10-24T07:35:19.483Z,1000.23
2017-10-24T07:36:19.481Z,1000.24
2017-10-24T07:37:19.466Z,1000.26
2017-10-24T07:38:19.464Z,1000.23
2017-10-24T07:39:19.463Z,1000.21
2017-10-24T07:40:19.460Z,1000.18
2017-10-24T07:41:19.457Z,1000.19
2017-10-24T07:42:19.457Z,1000.2
2017-10-24T07:43:19.453Z,1000.24
2017-10-24T07:44:19.451Z,1000.24
2017-10-24T07:45:19.449Z,1000.25
2017-10-24T07:46:19.447Z,1000.25
2017-10-24T07:47:19.449Z,1000.23
2017-10-24T07:48:19.445Z,1000.23
2017-10-24T07:49:19.444Z,1000.26
2017-10-24T07:50:19.438Z,1000.28
2017-10-24T07:51:19.438Z,1000.33
2017-10-24T07:52:19.446Z,1000.36
2017-10-24T07:53:19.435Z,1000.37
2017-10-24T07:54:19.436Z,1000.38
2017-10-24T07:55:19.440Z,1000.42
2017-10-24T07:56:19.425Z,1000.39
2017-10-24T07:57:19.427Z,1000.44
2017-10-24T07:58:19.423Z,1000.44
2017-10-24T07:59:19.420Z,1000.4
2017-10-24T08:00:19.418Z,1000.43
2017-10-24T08:01:19.418Z,1000.38
2017-10-24T08:02:19.430Z,1000.49
2017-10-24T08:03:19.414Z,1000.46
2017-10-24T08:04:19.412Z,1000.48
2017-10-24T08:05:19.411Z,1000.47
2017-10-24T08:06:19.408Z,1000.38
2017-10-24T08:07:19.404Z,1000.42
2017-10-24T08:08:19.407Z,1000.41
2017-10-24T08:09:19.400Z,1000.44
2017-10-24T08:10:19.400Z,1000.49
2017-10-24T08:11:19.397Z,1000.44
2017-10-24T08:12:19.396Z,1000.52
2017-10-24T08:13:19.396Z,1000.45
2017-10-24T09:30:24.080Z,1000.78
2017-10-24T09:31:24.081Z,1000.74
2017-10-24T09:32:24.081Z,1000.72
2017-10-24T09:33:24.081Z,1000.65
2017-10-24T09:34:24.082Z,1000.64
2017-10-24T09:35:24.081Z,1000.61
2017-10-24T09:36:24.083Z,1000.6
2017-10-24T09:37:24.082Z,1000.58
2017-10-24T09:38:24.087Z,1000.49
2017-10-24T09:39:24.083Z,1000.47
2017-10-24T09:40:24.084Z,1000.47
2017-10-24T09:41:24.084Z,1000.48
2017-10-24T09:42:24.084Z,1000.49
2017-10-24T09:43:24.086Z,1000.51
2017-10-24T09:44:24.087Z,1000.51
2017-10-24T09:45:24.435Z,1000.5
2017-10-24T09:46:24.085Z,1000.51
2017-10-24T09:47:24.086Z,1000.48
2017-10-24T09:48:24.087Z,1000.47
2017-10-24T09:49:24.087Z,1000.47
2017-10-24T09:50:24.086Z,1000.53
2017-10-24T09:51:24.088Z,1000.57
2017-10-24T09:52:24.086Z,1000.6
2017-10-24T09:53:24.088Z,1000.61
2017-10-24T09:54:24.090Z,1000.59
2017-10-24T09:55:24.091Z,1000.55
2017-10-24T09:56:24.089Z,1000.5
2017-10-24T09:57:24.090Z,1000.44
2017-10-24T09:58:24.090Z,1000.4
2017-10-24T09:59:24.092Z,1000.38
2017-10-24T10:00:24.092Z,1000.33
2017-10-24T10:01:24.092Z,1000.32
2017-10-24T10:02:24.095Z,1000.24
2017-10-24T10:03:24.094Z,1000.28
2017-10-24T10:04:24.096Z,1000.28
2017-10-24T10:05:24.096Z,1000.27
2017-10-24T10:06:24.098Z,1000.33
2017-10-24T10:07:24.097Z,1000.33
2017-10-24T10:08:24.100Z,1000.33
2017-10-24T10:09:24.099Z,1000.3
2017-10-24T10:10:24.105Z,1000.27
2017-10-24T10:11:24.101Z,1000.29
2017-10-24T10:12:24.103Z,1000.26
2017-10-24T10:13:24.107Z,1000.3
2017-10-24T10:14:24.107Z,1000.37
2017-10-24T10:15:24.103Z,1000.33
2017-10-24T10:16:24.106Z,1000.33
2017-10-24T10:17:24.108Z,1000.33
2017-10-24T10:18:24.110Z,1000.37
2017-10-24T10:19:24.108Z,1000.31
2017-10-24T10:20:24.111Z,1000.3
2017-10-24T10:21:24.111Z,1000.32
2017-10-24T10:22:24.114Z,1000.27
2017-10-24T10:23:24.117Z,1000.3
2017-10-24T10:24:24.116Z,1000.28
2017-10-24T10:25:24.116Z,1000.31
2017-10-24T10:26:24.118Z,1000.32
2017-10-24T10:27:24.122Z,1000.31
2017-10-24T10:28:24.121Z,1000.33
2017-10-24T10:29:24.124Z,1000.25
2017-10-24T10:30:24.134Z,1000.23
2017-10-24T10:31:24.125Z,1000.18
2017-10-24T10:32:24.133Z,1000.15
2017-10-24T10:33:24.126Z,1000.12
2017-10-24T10:34:24.129Z,1000.12
2017-10-24T10:35:24.135Z,1000.13
2017-10-24T10:36:24.131Z,1000.09
2017-10-24T10:37:24.136Z,1000.11
2017-10-24T10:38:24.133Z,1000.07
2017-10-24T10:39:24.135Z,1000.09
2017-10-24T10:40:24.136Z,1000.12
2017-10-24T10:41:24.145Z,1000.07
2017-10-24T10:42:24.138Z,1000.09
2017-10-24T10:43:24.141Z,1000.13
2017-10-24T10:44:24.140Z,1000.13
2017-10-24T10:45:24.143Z,1000.15
2017-10-24T10:46:24.143Z,1000.16
2017-10-24T10:47:24.144Z,1000.1
2017-10-24T10:48:24.146Z,1000.09
2017-10-24T10:49:24.147Z,1000.05
2017-10-24T10:50:24.148Z,1000.08
2017-10-24T10:51:24.150Z,1000.07
2017-10-24T10:52:24.149Z,1000.06
2017-10-24T10:53:24.150Z,1000.03
2017-10-24T10:54:24.154Z,1000
2017-10-24T10:55:24.152Z,1000.04
2017-10-24T10:56:24.153Z,1000.03
2017-10-24T10:57:24.155Z,1000.01
2017-10-24T10:58:24.154Z,1000.02
2017-10-24T10:59:24.156Z,1000.02
2017-10-24T11:00:24.159Z,999.95
2017-10-24T11:01:24.159Z,999.97
2017-10-24T11:02:24.160Z,999.99
2017-10-24T11:03:24.167Z,999.93
2017-10-24T11:04:24.161Z,999.93
2017-10-24T11:05:24.163Z,999.97
2017-10-24T11:06:24.164Z,999.99
2017-10-24T11:07:24.164Z,1000
2017-10-24T11:08:24.165Z,1000.01
2017-10-24T11:09:24.167Z,1000
2017-10-24T11:10:24.168Z,1000
2017-10-24T11:11:24.169Z,999.98
2017-10-24T11:12:24.185Z,1000
2017-10-24T11:13:24.172Z,1000
2017-10-24T11:14:24.172Z,999.99
2017-10-24T11:15:24.173Z,999.98
2017-10-24T11:16:24.172Z,999.96
2017-10-24T11:17:24.175Z,999.99
2017-10-24T11:18:24.178Z,999.97
2017-10-24T11:19:24.177Z,999.95
2017-10-24T11:20:24.178Z,999.91
2017-10-24T11:21:24.178Z,999.93
2017-10-24T11:22:24.179Z,999.92
2017-10-24T11:23:24.187Z,999.85
2017-10-24T11:24:24.181Z,999.84
2017-10-24T11:25:24.182Z,999.83
2017-10-24T11:26:24.185Z,999.81
2017-10-24T11:27:24.184Z,999.82
2017-10-24T11:28:24.185Z,999.83
2017-10-24T11:29:24.188Z,999.8
2017-10-24T11:30:24.191Z,999.8
2017-10-24T11:31:24.190Z,999.83
2017-10-24T11:32:24.191Z,999.77
2017-10-24T11:33:24.198Z,999.84
2017-10-24T11:34:24.195Z,999.83
2017-10-24T11:35:24.194Z,999.76
2017-10-24T11:36:24.195Z,999.72
2017-10-24T11:37:24.197Z,999.67
2017-10-24T11:38:24.200Z,999.67
2017-10-24T11:39:24.199Z,999.62
2017-10-24T11:40:24.201Z,999.63
2017-10-24T11:41:24.210Z,999.6
2017-10-24T11:42:24.220Z,999.64
2017-10-24T11:43:24.204Z,999.61
2017-10-24T11:44:24.206Z,999.59
2017-10-24T11:45:24.210Z,999.56
2017-10-24T11:46:24.207Z,999.46
2017-10-24T11:47:24.210Z,999.42
2017-10-24T11:48:24.213Z,999.37
2017-10-24T11:49:24.211Z,999.32
2017-10-24T11:50:24.221Z,999.26
2017-10-24T11:51:24.218Z,999.22
2017-10-24T11:52:24.218Z,999.24
2017-10-24T11:53:24.218Z,999.27
2017-10-24T11:54:24.219Z,999.26
2017-10-24T11:55:24.226Z,999.24
2017-10-24T11:56:24.224Z,999.23
2017-10-24T11:57:24.231Z,999.2
2017-10-24T11:58:24.226Z,999.16
2017-10-24T11:59:24.228Z,999.2
2017-10-24T12:00:24.228Z,999.18
2017-10-24T12:01:24.228Z,999.15
2017-10-24T12:02:24.232Z,999.15
2017-10-24T12:03:24.233Z,999.11
2017-10-24T12:04:24.235Z,999.09
2017-10-24T12:05:24.235Z,999.13
2017-10-24T12:06:24.240Z,999.16
2017-10-24T12:07:24.240Z,999.13
2017-10-24T12:08:24.239Z,999.08
2017-10-24T12:09:24.255Z,999.09
2017-10-24T12:10:24.243Z,999.08
2017-10-24T12:11:24.254Z,999.03
2017-10-24T12:12:24.248Z,999
2017-10-24T12:13:24.248Z,999
2017-10-24T12:14:24.249Z,998.98
2017-10-24T12:15:24.250Z,998.99
2017-10-24T12:16:24.264Z,998.95
2017-10-24T12:17:24.254Z,999.01
2017-10-24T12:18:24.267Z,999.01
2017-10-24T12:19:24.266Z,999.06
2017-10-24T12:20:24.268Z,999.05
2017-10-24T12:21:24.269Z,999.13
2017-10-24T12:22:24.270Z,999.12
2017-10-24T12:23:24.270Z,999.06
2017-10-24T12:24:24.268Z,999.12
2017-10-24T12:25:24.272Z,999.08
2017-10-24T12:26:24.271Z,999.05
2017-10-24T12:27:24.274Z,999.07
2017-10-24T12:28:24.272Z,999.07
2017-10-24T12:29:24.270Z,999.11
2017-10-24T12:30:24.277Z,999.07
2017-10-24T12:31:24.273Z,999.09
2017-10-24T12:32:24.273Z,999.06
2017-10-24T12:33:24.276Z,999.02
2017-10-24T12:34:24.276Z,999.04
2017-10-24T12:35:24.273Z,998.96
2017-10-24T12:36:24.276Z,998.97
2017-10-24T12:37:24.280Z,998.99
2017-10-24T12:38:24.278Z,998.99
2017-10-24T12:39:24.279Z,998.97
2017-10-24T12:40:24.281Z,999.02
2017-10-24T12:41:24.282Z,999.05
2017-10-24T12:42:24.291Z,999.04
2017-10-24T12:43:24.286Z,998.97
2017-10-24T12:44:24.289Z,998.99
2017-10-24T12:45:24.296Z,999
2017-10-24T12:46:26.144Z,999.04
2017-10-24T12:47:24.296Z,999.09
2017-10-24T12:48:24.297Z,999.08
2017-10-24T12:49:24.295Z,999.07
2017-10-24T12:50:24.298Z,999.08
2017-10-24T12:51:24.304Z,999.13
2017-10-24T12:52:24.301Z,999.12
2017-10-24T12:53:24.302Z,999.08
2017-10-24T12:54:24.305Z,999.07
2017-10-24T12:55:24.303Z,999.04
2017-10-24T12:56:24.307Z,999.05
2017-10-24T12:57:24.314Z,999.08
2017-10-24T12:58:24.310Z,999.09
2017-10-24T12:59:24.313Z,999.04
2017-10-24T13:00:24.316Z,999.07
2017-10-24T13:01:24.316Z,999.07
2017-10-24T13:02:24.319Z,999.08
2017-10-24T13:03:24.319Z,999.07
2017-10-24T13:04:24.323Z,999.03
2017-10-24T13:05:24.325Z,999.07
2017-10-24T13:06:24.326Z,999.01
2017-10-24T13:07:24.329Z,999.03
2017-10-24T13:08:24.331Z,999.02
2017-10-24T13:09:24.346Z,998.99
2017-10-24T13:10:24.333Z,998.91
2017-10-24T13:11:24.337Z,998.91
2017-10-24T13:12:24.348Z,998.9
2017-10-24T13:13:24.342Z,998.87
2017-10-24T13:14:24.353Z,998.82
2017-10-24T13:15:24.361Z,998.8
2017-10-24T13:16:24.357Z,998.8
2017-10-24T13:17:24.353Z,998.79
2017-10-24T13:18:24.358Z,998.82
2017-10-24T13:19:24.356Z,998.84
2017-10-24T13:20:24.355Z,998.8
2017-10-24T13:21:24.364Z,998.82
2017-10-24T13:22:24.357Z,998.78
2017-10-24T13:23:24.362Z,998.78
2017-10-24T13:24:24.369Z,998.77
2017-10-24T13:25:24.362Z,998.78
2017-10-24T13:26:24.365Z,998.79
2017-10-24T13:27:24.371Z,998.78
2017-10-24T13:28:24.369Z,998.82
2017-10-24T13:29:24.371Z,998.72
2017-10-24T13:30:24.372Z,998.75
2017-10-24T13:31:24.388Z,998.72
2017-10-24T13:32:24.377Z,998.77
2017-10-24T13:33:24.380Z,998.74
2017-10-24T13:34:24.383Z,998.75
2017-10-24T13:35:24.382Z,998.79
2017-10-24T13:36:24.386Z,998.82
2017-10-24T13:37:24.388Z,998.83
2017-10-24T13:38:24.390Z,998.83
2017-10-24T13:39:24.392Z,998.85
2017-10-24T13:40:24.395Z,998.86
2017-10-24T13:41:24.400Z,998.86